createdAt,value
2023-02-24T00:02:00.353Z,3.57
2023-02-24T00:04:30.408Z,3.43
2023-02-24T00:06:57.426Z,3.46
2023-02-24T00:09:27.680Z,3.48
2023-02-24T00:12:10.835Z,3.38
2023-02-24T00:14:40.989Z,3.38
2023-02-24T00:17:09.276Z,3.28
2023-02-24T00:19:37.766Z,3.29
2023-02-24T00:22:07.336Z,3.43
2023-02-24T00:24:35.589Z,3.43
2023-02-24T00:27:08.230Z,3.37
2023-02-24T00:29:40.860Z,3.50
2023-02-24T00:32:12.607Z,3.43
2023-02-24T00:34:40.352Z,3.48
2023-02-24T00:37:07.373Z,3.43
2023-02-24T00:39:36.242Z,3.26
2023-02-24T00:42:06.225Z,3.27
2023-02-24T00:44:47.411Z,3.18
2023-02-24T00:47:16.942Z,3.09
2023-02-24T00:49:44.921Z,3.18
2023-02-24T00:52:15.916Z,3.27
2023-02-24T00:54:45.228Z,3.36
2023-02-24T00:57:12.880Z,3.26
2023-02-24T00:59:40.360Z,3.22
2023-02-24T01:02:08.134Z,3.21
2023-02-24T01:04:37.666Z,3.32
2023-02-24T01:07:10.850Z,3.34
2023-02-24T01:09:41.543Z,3.18
2023-02-24T01:12:30.030Z,3.15
2023-02-24T01:14:57.396Z,3.23
2023-02-24T01:17:25.429Z,3.20
2023-02-24T01:19:52.725Z,3.27
2023-02-24T01:22:21.060Z,3.21
2023-02-24T01:24:48.911Z,3.29
2023-02-24T01:27:19.081Z,3.29
2023-02-24T01:29:47.951Z,3.16
2023-02-24T01:32:21.574Z,3.24
2023-02-24T01:34:52.639Z,3.13
2023-02-24T01:37:20.920Z,3.10
2023-02-24T01:39:48.944Z,3.13
2023-02-24T01:42:21.698Z,3.16
2023-02-24T01:44:48.940Z,3.14
2023-02-24T01:47:21.421Z,3.17
2023-02-24T01:49:52.778Z,3.06
2023-02-24T01:52:19.554Z,3.11
2023-02-24T01:54:55.791Z,3.02
2023-02-24T01:57:27.469Z,3.02
2023-02-24T02:00:02.181Z,3.11
2023-02-24T02:02:30.837Z,3.11
2023-02-24T02:05:05.676Z,3.15
2023-02-24T02:07:33.121Z,3.10
2023-02-24T02:10:03.982Z,3.06
2023-02-24T02:12:37.103Z,3.03
2023-02-24T02:15:06.686Z,3.07
2023-02-24T02:17:41.405Z,2.96
2023-02-24T02:20:39.099Z,2.89
2023-02-24T02:23:22.038Z,2.89
2023-02-24T02:26:35.653Z,2.81
2023-02-24T02:29:27.193Z,2.85
2023-02-24T02:32:25.003Z,2.87
2023-02-24T02:34:57.624Z,2.72
2023-02-24T02:37:35.023Z,2.71
2023-02-24T02:40:37.528Z,2.73
2023-02-24T02:43:25.876Z,2.80
2023-02-24T02:46:17.712Z,2.77
2023-02-24T02:48:57.098Z,2.65
2023-02-24T02:51:33.349Z,2.71
2023-02-24T02:54:36.904Z,2.70
2023-02-24T02:57:25.017Z,2.67
2023-02-24T03:00:00.157Z,2.67
2023-02-24T03:02:38.246Z,2.63
2023-02-24T03:05:10.858Z,2.60
2023-02-24T03:07:45.391Z,2.70
2023-02-24T03:10:27.627Z,2.69
2023-02-24T03:12:59.675Z,2.68
2023-02-24T03:15:32.734Z,2.65
2023-02-24T03:18:10.356Z,2.61
2023-02-24T03:20:47.115Z,2.64
2023-02-24T03:23:26.842Z,2.66
2023-02-24T03:26:21.568Z,2.74
2023-02-24T03:29:23.739Z,2.67
2023-02-24T03:32:26.857Z,2.81
2023-02-24T03:35:16.939Z,2.60
2023-02-24T03:37:47.437Z,2.59
2023-02-24T03:40:15.760Z,2.68
2023-02-24T03:42:57.004Z,2.64
2023-02-24T03:45:27.801Z,2.60
2023-02-24T03:47:56.093Z,2.63
2023-02-24T03:50:23.533Z,2.57
2023-02-24T03:53:13.365Z,2.57
2023-02-24T03:55:47.724Z,2.62
2023-02-24T03:58:33.018Z,2.53
2023-02-24T04:01:22.023Z,2.58
2023-02-24T04:04:00.360Z,2.57
2023-02-24T04:06:51.074Z,2.56
2023-02-24T04:09:41.299Z,2.55
2023-02-24T04:12:34.900Z,2.49
2023-02-24T04:15:29.942Z,2.50
2023-02-24T04:18:13.869Z,2.54
2023-02-24T04:20:45.266Z,2.51
2023-02-24T04:23:16.891Z,2.59
2023-02-24T04:25:50.708Z,2.54
2023-02-24T04:28:21.257Z,2.51
2023-02-24T04:30:55.346Z,2.45
2023-02-24T04:33:23.505Z,2.49
2023-02-24T04:35:51.547Z,2.40
2023-02-24T04:38:20.224Z,2.34
2023-02-24T04:40:49.884Z,2.25
2023-02-24T04:43:18.042Z,2.27
2023-02-24T04:45:45.266Z,2.26
2023-02-24T04:48:15.146Z,2.27
2023-02-24T04:50:43.809Z,2.28
2023-02-24T04:53:15.184Z,2.20
2023-02-24T04:55:50.635Z,2.22
2023-02-24T04:58:20.298Z,2.21
2023-02-24T05:00:52.756Z,2.21
2023-02-24T05:03:23.243Z,2.26
2023-02-24T05:06:00.058Z,2.21
2023-02-24T05:08:30.686Z,2.11
2023-02-24T05:10:58.656Z,2.15
2023-02-24T05:13:28.535Z,2.11
2023-02-24T05:15:59.091Z,1.99
2023-02-24T05:18:29.907Z,2.03
2023-02-24T05:21:16.051Z,1.92
2023-02-24T05:23:46.697Z,1.98
2023-02-24T05:26:17.616Z,2.08
2023-02-24T05:28:49.363Z,1.99
2023-02-24T05:31:24.026Z,2.03
2023-02-24T05:33:55.498Z,2.01
2023-02-24T05:36:23.568Z,1.97
2023-02-24T05:39:04.605Z,1.94
2023-02-24T05:41:36.112Z,1.83
2023-02-24T05:44:09.370Z,1.93
2023-02-24T05:46:46.604Z,1.89
2023-02-24T05:49:21.150Z,1.80
2023-02-24T05:51:57.022Z,1.73
2023-02-24T05:54:33.709Z,1.78
2023-02-24T05:57:07.076Z,1.75
2023-02-24T05:59:34.143Z,1.65
2023-02-24T06:02:07.722Z,1.68
2023-02-24T06:04:40.588Z,1.63
2023-02-24T06:07:19.005Z,1.73
2023-02-24T06:09:53.697Z,1.71
2023-02-24T06:12:33.749Z,1.61
2023-02-24T06:15:01.689Z,1.62
2023-02-24T06:17:29.769Z,1.64
2023-02-24T06:19:57.209Z,1.55
2023-02-24T06:22:26.551Z,1.54
2023-02-24T06:24:55.192Z,1.59
2023-02-24T06:27:24.570Z,1.51
2023-02-24T06:29:54.188Z,1.60
2023-02-24T06:32:25.960Z,1.54
2023-02-24T06:34:57.523Z,1.53
2023-02-24T06:37:24.889Z,1.45
2023-02-24T06:39:51.805Z,1.57
2023-02-24T06:42:18.861Z,1.58
2023-02-24T06:44:46.880Z,1.55
2023-02-24T06:47:17.812Z,1.56
2023-02-24T06:49:44.922Z,1.64
2023-02-24T06:52:18.248Z,1.58
2023-02-24T06:54:48.483Z,1.51
2023-02-24T06:57:15.367Z,1.54
2023-02-24T06:59:42.367Z,1.50
2023-02-24T07:02:10.710Z,1.42
2023-02-24T07:04:43.866Z,1.56
2023-02-24T07:07:14.328Z,1.47
2023-02-24T07:09:42.769Z,1.52
2023-02-24T07:12:11.160Z,1.55
2023-02-24T07:14:38.481Z,1.51
2023-02-24T07:17:05.768Z,1.49
2023-02-24T07:19:32.841Z,1.50
2023-02-24T07:22:03.564Z,1.50
2023-02-24T07:24:36.880Z,1.56
2023-02-24T07:27:08.103Z,1.63
2023-02-24T07:29:37.605Z,1.62
2023-02-24T07:32:08.902Z,1.74
2023-02-24T07:34:40.097Z,1.73
2023-02-24T07:37:09.528Z,1.75
2023-02-24T07:39:39.140Z,1.76
2023-02-24T07:42:09.978Z,1.83
2023-02-24T07:44:46.199Z,1.82
2023-02-24T07:47:13.183Z,1.78
2023-02-24T07:49:40.965Z,1.77
2023-02-24T07:52:08.964Z,1.81
2023-02-24T07:54:39.329Z,1.76
2023-02-24T07:57:13.159Z,1.77
2023-02-24T07:59:40.245Z,1.79
2023-02-24T08:02:11.422Z,1.81
2023-02-24T08:04:41.218Z,1.86
2023-02-24T08:07:14.358Z,1.92
2023-02-24T08:09:44.531Z,1.93
2023-02-24T08:12:21.216Z,1.93
2023-02-24T08:14:53.482Z,1.94
2023-02-24T08:17:24.017Z,1.98
2023-02-24T08:20:14.433Z,1.96
2023-02-24T08:22:46.564Z,1.94
2023-02-24T08:25:19.192Z,1.99
2023-02-24T08:28:12.983Z,2.03
2023-02-24T08:30:47.327Z,1.92
2023-02-24T08:33:21.167Z,1.93
2023-02-24T08:36:02.143Z,1.96
2023-02-24T08:38:42.098Z,1.91
2023-02-24T08:41:21.115Z,1.93
2023-02-24T08:43:49.316Z,2.04
2023-02-24T08:46:25.604Z,2.02
2023-02-24T08:49:00.529Z,1.98
2023-02-24T08:51:36.620Z,2.02
2023-02-24T08:54:11.011Z,2.01
2023-02-24T08:56:43.520Z,1.99
2023-02-24T08:59:29.193Z,1.95
2023-02-24T09:02:17.270Z,1.99
2023-02-24T09:04:51.557Z,1.97
2023-02-24T09:07:29.900Z,2.05
2023-02-24T09:09:56.800Z,2.08
2023-02-24T09:12:28.955Z,2.12
2023-02-24T09:15:04.833Z,2.08
2023-02-24T09:17:44.787Z,2.13
2023-02-24T09:20:27.272Z,2.13
2023-02-24T09:22:57.917Z,2.01
2023-02-24T09:25:40.543Z,2.05
2023-02-24T09:28:26.597Z,2.12
2023-02-24T09:31:00.362Z,2.13
2023-02-24T09:33:42.094Z,2.12
2023-02-24T09:36:20.954Z,2.14
2023-02-24T09:39:00.112Z,2.07
2023-02-24T09:41:32.609Z,1.94
2023-02-24T09:44:25.067Z,1.86
2023-02-24T09:47:01.073Z,1.87
2023-02-24T09:49:46.423Z,1.77
2023-02-24T09:52:18.200Z,1.66
2023-02-24T09:55:11.369Z,1.69
2023-02-24T09:58:07.379Z,1.74
2023-02-24T10:00:44.026Z,1.64
2023-02-24T10:03:43.066Z,1.54
2023-02-24T10:06:23.958Z,1.50
2023-02-24T10:08:59.790Z,1.46
2023-02-24T10:11:35.285Z,1.44
2023-02-24T10:14:06.080Z,1.46
2023-02-24T10:16:43.179Z,1.58
2023-02-24T10:19:28.699Z,1.57
2023-02-24T10:22:50.614Z,1.40
2023-02-24T10:25:40.791Z,1.48
2023-02-24T10:28:35.873Z,1.44
2023-02-24T10:31:27.634Z,1.44
2023-02-24T10:34:08.277Z,1.50
2023-02-24T10:36:36.178Z,1.55
2023-02-24T10:39:15.553Z,1.65
2023-02-24T10:41:50.199Z,1.63
2023-02-24T10:44:25.678Z,1.70
2023-02-24T10:47:13.599Z,1.76
2023-02-24T10:49:57.452Z,1.68
2023-02-24T10:52:37.526Z,1.59
2023-02-24T10:55:28.238Z,1.59
2023-02-24T10:58:06.457Z,1.62
2023-02-24T11:01:05.773Z,1.53
2023-02-24T11:03:41.766Z,1.44
2023-02-24T11:06:41.239Z,1.44
2023-02-24T11:09:29.199Z,1.37
2023-02-24T11:12:25.284Z,1.42
2023-02-24T11:15:17.786Z,1.37
2023-02-24T11:17:58.706Z,1.43
2023-02-24T11:20:50.262Z,1.46
2023-02-24T11:23:35.381Z,1.50
2023-02-24T11:26:18.248Z,1.62
2023-02-24T11:29:10.933Z,1.49
2023-02-24T11:32:16.914Z,1.57
2023-02-24T11:34:59.520Z,1.57
2023-02-24T11:37:43.400Z,1.74
2023-02-24T11:40:27.660Z,1.67
2023-02-24T11:43:24.187Z,1.56
2023-02-24T11:46:02.994Z,1.71
2023-02-24T11:48:39.820Z,1.64
2023-02-24T11:51:21.131Z,1.60
2023-02-24T11:54:03.330Z,1.61
2023-02-24T11:56:54.788Z,1.59
2023-02-24T11:59:43.755Z,1.51
2023-02-24T12:02:41.739Z,1.51
2023-02-24T12:05:50.171Z,1.47
2023-02-24T12:08:34.762Z,1.39
2023-02-24T12:11:42.857Z,1.44
2023-02-24T12:14:44.350Z,1.33
2023-02-24T12:17:33.902Z,1.32
2023-02-24T12:20:40.440Z,1.26
2023-02-24T12:23:25.915Z,1.26
2023-02-24T12:26:20.062Z,1.20
2023-02-24T12:29:29.823Z,1.24
2023-02-24T12:32:25.577Z,1.30
2023-02-24T12:35:07.007Z,1.21
2023-02-24T12:38:09.477Z,1.28
2023-02-24T12:41:04.043Z,1.21
2023-02-24T12:44:05.584Z,1.29
2023-02-24T12:46:40.378Z,1.28
2023-02-24T12:49:42.813Z,1.27
2023-02-24T12:52:36.998Z,1.35
2023-02-24T12:55:21.881Z,1.29
2023-02-24T12:58:09.088Z,1.34
2023-02-24T13:01:12.140Z,1.26
2023-02-24T13:04:34.008Z,1.33
2023-02-24T13:07:12.934Z,1.24
2023-02-24T13:10:10.824Z,1.25
2023-02-24T13:13:04.020Z,1.24
2023-02-24T13:15:33.615Z,1.21
2023-02-24T13:18:01.108Z,1.17
2023-02-24T13:20:36.415Z,1.20
2023-02-24T13:23:21.821Z,1.16
2023-02-24T13:25:54.727Z,1.17
2023-02-24T13:28:31.140Z,1.13
2023-02-24T13:31:08.602Z,1.21
2023-02-24T13:33:40.704Z,1.13
2023-02-24T13:36:15.355Z,1.13
2023-02-24T13:38:48.134Z,1.17
2023-02-24T13:41:28.880Z,1.09
2023-02-24T13:44:20.375Z,1.08
2023-02-24T13:47:03.040Z,1.11
2023-02-24T13:50:14.951Z,1.11
2023-02-24T13:53:24.153Z,1.18
2023-02-24T13:56:34.098Z,1.25
2023-02-24T13:59:19.237Z,1.31
2023-02-24T14:01:50.599Z,1.40
2023-02-24T14:04:24.481Z,1.39
2023-02-24T14:06:56.508Z,1.44
2023-02-24T14:09:30.777Z,1.43
2023-02-24T14:12:19.811Z,1.44
2023-02-24T14:14:48.114Z,1.47
2023-02-24T14:17:34.557Z,1.41
2023-02-24T14:20:11.515Z,1.43
2023-02-24T14:22:53.171Z,1.48
2023-02-24T14:25:21.959Z,1.43
2023-02-24T14:27:52.526Z,1.50
2023-02-24T14:30:36.318Z,1.46
2023-02-24T14:33:06.076Z,1.45
2023-02-24T14:35:38.971Z,1.49
2023-02-24T14:38:06.306Z,1.48
2023-02-24T14:40:33.483Z,1.44
2023-02-24T14:43:00.702Z,1.48
2023-02-24T14:45:29.269Z,1.43
2023-02-24T14:47:56.945Z,1.40
2023-02-24T14:50:30.016Z,1.40
2023-02-24T14:53:12.644Z,1.44
2023-02-24T14:55:45.663Z,1.46
2023-02-24T14:58:30.360Z,1.56
2023-02-24T15:01:14.618Z,1.48
2023-02-24T15:03:49.643Z,1.63
2023-02-24T15:06:28.698Z,1.62
2023-02-24T15:09:10.996Z,1.69
2023-02-24T15:11:38.002Z,1.67
2023-02-24T15:14:19.120Z,1.73
2023-02-24T15:16:50.368Z,1.72
2023-02-24T15:19:37.235Z,1.79
2023-02-24T15:22:18.268Z,1.89
2023-02-24T15:24:45.231Z,1.86
2023-02-24T15:27:15.059Z,1.80
2023-02-24T15:29:45.295Z,1.79
2023-02-24T15:32:23.213Z,1.74
2023-02-24T15:34:50.717Z,1.78
2023-02-24T15:37:29.219Z,1.77
2023-02-24T15:40:22.568Z,1.78
2023-02-24T15:42:56.677Z,1.83
2023-02-24T15:48:55.474Z,1.79
2023-02-24T15:51:28.224Z,1.83
2023-02-24T15:53:55.314Z,1.77
2023-02-24T15:56:22.726Z,1.82
2023-02-24T15:58:49.875Z,1.90
2023-02-24T16:01:16.826Z,1.85
2023-02-24T16:03:44.219Z,1.86
2023-02-24T16:06:22.719Z,1.89
2023-02-24T16:08:52.063Z,1.91
2023-02-24T16:11:27.556Z,1.94
2023-02-24T16:13:58.553Z,1.93
2023-02-24T16:16:26.647Z,1.94
2023-02-24T16:18:54.077Z,1.97
2023-02-24T16:21:21.339Z,1.93
2023-02-24T16:23:48.662Z,1.93
2023-02-24T16:26:19.852Z,1.91
2023-02-24T16:28:56.038Z,1.94
2023-02-24T16:31:26.178Z,1.90
2023-02-24T16:33:55.820Z,1.89
2023-02-24T16:36:25.433Z,1.94
2023-02-24T16:38:52.566Z,2.00
2023-02-24T16:41:19.649Z,1.94
2023-02-24T16:43:47.086Z,1.98
2023-02-24T16:46:18.463Z,1.96
2023-02-24T16:48:48.891Z,2.01
2023-02-24T16:51:16.446Z,2.05
2023-02-24T16:53:43.784Z,2.10
2023-02-24T16:56:12.516Z,2.15
2023-02-24T16:58:39.468Z,2.16
2023-02-24T17:01:06.684Z,2.12
2023-02-24T17:03:48.880Z,2.21
2023-02-24T17:06:16.544Z,2.22
2023-02-24T17:08:45.675Z,2.27
2023-02-24T17:11:15.680Z,2.28
2023-02-24T17:13:43.679Z,2.33
2023-02-24T17:16:13.078Z,2.35
2023-02-24T17:18:40.044Z,2.34
2023-02-24T17:21:07.119Z,2.35
2023-02-24T17:23:33.992Z,2.36
2023-02-24T17:26:02.814Z,2.38
2023-02-24T17:28:29.991Z,2.36
2023-02-24T17:30:57.479Z,2.36
2023-02-24T17:33:24.548Z,2.39
2023-02-24T17:35:51.467Z,2.45
2023-02-24T17:38:21.574Z,2.45
2023-02-24T17:40:48.631Z,2.50
2023-02-24T17:43:15.590Z,2.50
2023-02-24T17:45:45.178Z,2.52
2023-02-24T17:48:15.185Z,2.57
2023-02-24T17:50:44.385Z,2.58
2023-02-24T17:53:11.346Z,2.58
2023-02-24T17:55:40.374Z,2.61
2023-02-24T17:58:10.163Z,2.55
2023-02-24T18:00:38.298Z,2.56
2023-02-24T18:03:05.486Z,2.57
2023-02-24T18:05:32.469Z,2.56
2023-02-24T18:07:59.496Z,2.54
2023-02-24T18:10:27.525Z,2.53
2023-02-24T18:12:54.621Z,2.45
2023-02-24T18:15:21.521Z,2.48
2023-02-24T18:17:48.467Z,2.54
2023-02-24T18:20:15.378Z,2.55
2023-02-24T18:22:42.343Z,2.52
2023-02-24T18:25:09.474Z,2.48
2023-02-24T18:27:36.461Z,2.44
2023-02-24T18:30:04.282Z,2.42
2023-02-24T18:32:31.559Z,2.46
2023-02-24T18:34:58.530Z,2.36
2023-02-24T18:37:25.430Z,2.34
2023-02-24T18:39:53.338Z,2.31
2023-02-24T18:42:20.554Z,2.37
2023-02-24T18:44:47.542Z,2.33
2023-02-24T18:47:14.454Z,2.36
2023-02-24T18:49:41.388Z,2.36
2023-02-24T18:52:08.351Z,2.33
2023-02-24T18:54:35.250Z,2.36
2023-02-24T18:57:02.241Z,2.34
2023-02-24T18:59:29.360Z,2.35
2023-02-24T19:01:56.990Z,2.34
2023-02-24T19:04:25.016Z,2.40
2023-02-24T19:06:52.160Z,2.47
2023-02-24T19:09:21.719Z,2.55
2023-02-24T19:11:49.943Z,2.58
2023-02-24T19:14:17.820Z,2.61
2023-02-24T19:16:45.294Z,2.61
2023-02-24T19:19:14.363Z,2.66
2023-02-24T19:21:41.430Z,2.66
2023-02-24T19:24:11.081Z,2.68
2023-02-24T19:26:38.748Z,2.72
2023-02-24T19:29:06.365Z,2.73
2023-02-24T19:31:34.237Z,2.72
2023-02-24T19:34:08.259Z,2.71
2023-02-24T19:36:36.698Z,2.71
2023-02-24T19:39:05.385Z,2.67
2023-02-24T19:41:32.700Z,2.72
2023-02-24T19:43:59.714Z,2.66
2023-02-24T19:46:27.134Z,2.61
2023-02-24T19:48:56.529Z,2.62
2023-02-24T19:51:24.318Z,2.55
2023-02-24T19:53:57.690Z,2.54
2023-02-24T19:56:31.798Z,2.49
2023-02-24T19:59:00.833Z,2.41
2023-02-24T20:01:29.508Z,2.07
2023-02-24T20:03:59.941Z,1.91
2023-02-24T20:06:32.046Z,1.92
2023-02-24T20:09:00.553Z,1.94
2023-02-24T20:11:32.933Z,1.88
2023-02-24T20:13:59.833Z,1.84
2023-02-24T20:16:31.956Z,1.91
2023-02-24T20:19:00.080Z,1.92
2023-02-24T20:21:27.949Z,1.88
2023-02-24T20:23:54.832Z,1.92
2023-02-24T20:26:22.156Z,1.83
2023-02-24T20:28:49.339Z,1.84
2023-02-24T20:31:19.446Z,1.85
2023-02-24T20:33:48.593Z,1.85
2023-02-24T20:36:20.535Z,1.88
2023-02-24T20:38:47.918Z,1.97
2023-02-24T20:41:16.034Z,2.00
2023-02-24T20:43:43.273Z,2.03
2023-02-24T20:46:27.294Z,2.07
2023-02-24T20:49:07.275Z,2.07
2023-02-24T20:51:37.066Z,2.11
2023-02-24T20:54:08.547Z,2.15
2023-02-24T20:56:38.800Z,2.21
2023-02-24T20:59:13.476Z,2.30
2023-02-24T21:01:40.594Z,2.25
2023-02-24T21:04:08.771Z,2.23
2023-02-24T21:06:36.572Z,2.22
2023-02-24T21:09:04.589Z,2.21
2023-02-24T21:11:32.026Z,2.21
2023-02-24T21:13:59.341Z,2.14
2023-02-24T21:16:27.112Z,2.12
2023-02-24T21:18:55.755Z,2.18
2023-02-24T21:21:22.813Z,2.18
2023-02-24T21:23:50.493Z,2.18
2023-02-24T21:26:18.503Z,2.19
2023-02-24T21:28:46.371Z,2.18
2023-02-24T21:31:17.774Z,2.22
2023-02-24T21:33:44.861Z,2.21
2023-02-24T21:36:14.377Z,2.24
2023-02-24T21:38:41.687Z,2.24
2023-02-24T21:41:14.754Z,2.25
2023-02-24T21:43:44.169Z,2.30
2023-02-24T21:46:14.290Z,2.27
2023-02-24T21:48:41.904Z,2.27
2023-02-24T21:51:12.044Z,2.29
2023-02-24T21:53:43.406Z,2.28
2023-02-24T21:56:18.679Z,2.26
2023-02-24T21:59:05.961Z,2.24
2023-02-24T22:01:40.249Z,2.25
2023-02-24T22:04:15.189Z,2.30
2023-02-24T22:06:43.762Z,2.31
2023-02-24T22:09:15.104Z,2.32
2023-02-24T22:11:42.075Z,2.31
2023-02-24T22:14:11.703Z,2.32
2023-02-24T22:16:39.965Z,2.30
2023-02-24T22:19:07.053Z,2.23
2023-02-24T22:21:34.741Z,2.18
2023-02-24T22:24:03.719Z,2.19
2023-02-24T22:26:32.117Z,2.15
2023-02-24T22:29:00.565Z,2.12
2023-02-24T22:31:31.594Z,2.11
2023-02-24T22:33:58.887Z,2.07
2023-02-24T22:36:30.830Z,2.07
2023-02-24T22:38:59.934Z,2.11
2023-02-24T22:41:33.360Z,2.12
2023-02-24T22:44:02.862Z,2.09
2023-02-24T22:46:33.857Z,2.11
2023-02-24T22:49:01.581Z,2.08
2023-02-24T22:51:29.374Z,2.08
2023-02-24T22:53:56.986Z,2.08
2023-02-24T22:56:26.968Z,2.03
2023-02-24T22:58:54.604Z,1.96
2023-02-24T23:01:24.138Z,1.86
2023-02-24T23:03:51.609Z,1.80
2023-02-24T23:06:22.979Z,1.81
2023-02-24T23:08:51.570Z,1.79
2023-02-24T23:11:31.648Z,1.83
2023-02-24T23:14:03.397Z,1.82
2023-02-24T23:16:33.159Z,1.82
2023-02-24T23:19:04.376Z,1.83
2023-02-24T23:21:38.370Z,1.81
2023-02-24T23:24:07.536Z,1.84
2023-02-24T23:26:38.494Z,1.82
2023-02-24T23:29:06.165Z,1.79
2023-02-24T23:31:33.747Z,1.76
2023-02-24T23:34:01.584Z,1.71
2023-02-24T23:36:28.519Z,1.67
2023-02-24T23:38:56.641Z,1.65
2023-02-24T23:41:23.472Z,1.65
2023-02-24T23:43:50.426Z,1.64
2023-02-24T23:46:17.403Z,1.65
2023-02-24T23:48:45.689Z,1.70
2023-02-24T23:51:14.156Z,1.72
2023-02-24T23:53:43.602Z,1.70
2023-02-24T23:56:16.461Z,1.69
2023-02-24T23:58:44.538Z,1.73
